createdAt,value
2023-02-16T00:06:00.150Z,0.73
2023-02-16T00:16:06.513Z,0.52
2023-02-16T00:26:15.182Z,0.38
2023-02-16T00:36:22.678Z,0.31
2023-02-16T00:46:30.181Z,0.29
2023-02-16T00:56:37.805Z,0.29
2023-02-16T01:07:02.307Z,0.27
2023-02-16T01:17:11.242Z,0.18
2023-02-16T01:27:18.256Z,0.08
2023-02-16T01:37:25.417Z,0.18
2023-02-16T01:47:35.758Z,0.31
2023-02-16T01:57:44.727Z,0.32
2023-02-16T02:07:53.350Z,0.25
2023-02-16T02:18:00.523Z,0.19
2023-02-16T02:28:05.460Z,0.19
2023-02-16T02:38:11.071Z,0.22
2023-02-16T02:48:18.468Z,0.12
2023-02-16T02:58:44.043Z,-0.03
2023-02-16T03:08:52.262Z,-0.12
2023-02-16T03:19:18.098Z,-0.06
2023-02-16T03:29:27.666Z,-0.06
2023-02-16T03:39:31.767Z,-0.11
2023-02-16T03:49:38.760Z,-0.27
2023-02-16T03:59:44.613Z,-0.48
2023-02-16T04:09:51.849Z,-0.55
2023-02-16T04:19:58.917Z,-0.55
2023-02-16T04:30:05.482Z,-0.58
2023-02-16T04:40:16.219Z,-0.60
2023-02-16T04:50:22.232Z,-0.59
2023-02-16T05:00:28.414Z,-0.66
2023-02-16T05:10:34.448Z,-0.79
2023-02-16T05:20:59.240Z,-0.77
2023-02-16T05:31:07.098Z,-0.71
2023-02-16T05:41:23.656Z,-0.71
2023-02-16T05:51:30.679Z,-0.81
2023-02-16T06:01:41.463Z,-0.87
2023-02-16T06:11:48.602Z,-0.84
2023-02-16T06:21:56.139Z,-0.69
2023-02-16T06:32:02.668Z,-0.53
2023-02-16T06:42:10.369Z,-0.32
2023-02-16T06:52:17.562Z,-0.25
2023-02-16T07:02:25.572Z,0.07
2023-02-16T07:12:32.994Z,0.77
2023-02-16T07:22:39.114Z,1.35
2023-02-16T07:32:44.421Z,1.95
2023-02-16T07:42:51.400Z,3.04
2023-02-16T07:52:58.529Z,4.34
2023-02-16T08:03:06.280Z,5.38
2023-02-16T08:13:13.726Z,5.78
2023-02-16T08:23:18.368Z,5.86
2023-02-16T08:33:25.557Z,6.13
2023-02-16T08:43:32.997Z,6.12
2023-02-16T08:53:41.947Z,5.88
2023-02-16T09:03:49.457Z,5.66
2023-02-16T09:13:56.632Z,5.66
2023-02-16T09:24:05.595Z,5.86
2023-02-16T09:34:18.637Z,6.03
2023-02-16T09:44:29.219Z,6.09
2023-02-16T09:54:37.358Z,6.20
2023-02-16T10:04:51.829Z,6.34
2023-02-16T10:15:04.798Z,6.59
2023-02-16T10:25:14.135Z,6.76
2023-02-16T10:35:23.156Z,7.07
2023-02-16T10:45:28.700Z,7.23
2023-02-16T10:55:36.113Z,7.49
2023-02-16T11:05:43.576Z,7.68
2023-02-16T11:15:54.950Z,7.76
2023-02-16T11:26:01.006Z,7.95
2023-02-16T11:36:07.643Z,8.02
2023-02-16T11:46:12.861Z,8.02
2023-02-16T11:56:22.644Z,8.06
2023-02-16T12:06:31.375Z,8.24
2023-02-16T12:16:41.695Z,8.47
2023-02-16T12:26:48.227Z,8.67
2023-02-16T12:36:54.609Z,8.70
2023-02-16T12:47:06.359Z,8.84
2023-02-16T12:57:11.824Z,8.86
2023-02-16T13:07:16.160Z,8.84
2023-02-16T13:17:32.173Z,8.70
2023-02-16T13:27:38.581Z,8.64
2023-02-16T13:37:51.249Z,8.64
2023-02-16T13:47:59.895Z,8.56
2023-02-16T13:58:06.636Z,8.34
2023-02-16T14:08:11.366Z,8.12
2023-02-16T14:18:29.523Z,7.96
2023-02-16T14:29:16.148Z,7.87
2023-02-16T14:39:26.072Z,7.87
2023-02-16T14:49:41.890Z,7.84
2023-02-16T14:59:51.657Z,7.78
2023-02-16T15:09:56.286Z,7.51
2023-02-16T15:20:04.281Z,7.17
2023-02-16T15:30:27.447Z,6.90
2023-02-16T15:40:35.710Z,6.58
2023-02-16T15:50:44.197Z,6.27
2023-02-16T16:00:51.738Z,6.04
2023-02-16T16:10:59.796Z,5.82
2023-02-16T16:21:13.719Z,5.51
2023-02-16T16:31:33.251Z,5.18
2023-02-16T16:41:40.731Z,4.89
2023-02-16T16:51:54.524Z,4.63
2023-02-16T17:02:01.928Z,4.49
2023-02-16T17:12:09.536Z,4.39
2023-02-16T17:22:18.516Z,4.28
2023-02-16T17:32:26.133Z,4.07
2023-02-16T17:42:33.906Z,3.83
2023-02-16T17:52:41.792Z,3.64
2023-02-16T18:02:49.101Z,3.54
2023-02-16T18:12:57.104Z,3.47
2023-02-16T18:23:03.375Z,3.34
2023-02-16T18:33:11.094Z,3.09
2023-02-16T18:43:18.882Z,2.88
2023-02-16T18:53:25.224Z,2.75
2023-02-16T19:03:32.931Z,2.72
2023-02-16T19:13:40.887Z,2.73
2023-02-16T19:23:47.429Z,2.65
2023-02-16T19:33:55.300Z,2.55
2023-02-16T19:44:03.057Z,2.37
2023-02-16T19:54:10.634Z,2.28
2023-02-16T20:04:18.118Z,2.30
2023-02-16T20:14:25.251Z,2.32
2023-02-16T20:24:32.854Z,2.24
2023-02-16T20:34:40.337Z,2.12
2023-02-16T20:44:47.724Z,1.94
2023-02-16T20:54:55.095Z,1.77
2023-02-16T21:05:02.237Z,1.78
2023-02-16T21:15:09.748Z,1.79
2023-02-16T21:25:17.912Z,1.80
2023-02-16T21:35:25.180Z,1.70
2023-02-16T21:45:32.928Z,1.58
2023-02-16T21:55:57.282Z,1.54
2023-02-16T22:06:06.612Z,1.59
2023-02-16T22:16:12.389Z,1.65
2023-02-16T22:26:22.947Z,1.67
2023-02-16T22:36:29.233Z,1.64
2023-02-16T22:46:36.689Z,1.50
2023-02-16T22:56:43.965Z,1.45
2023-02-16T23:06:51.362Z,1.45
2023-02-16T23:16:58.644Z,1.56
2023-02-16T23:27:04.817Z,1.64
2023-02-16T23:37:12.063Z,1.54
2023-02-16T23:47:20.604Z,1.48
2023-02-16T23:57:27.867Z,1.55
